Williamsburg, MI

3:33 AM EST on December 22, 2014 (GMT -0500)
MesoWest Elkrapids MI US MAWN | Change Station
CLOSE
Current Station
Personal Weather Station
Location: Williamsburg, MI
Elevation: 649 ft
Nearby Weather Stations

Elev 649 ft 44.84 °N, 85.41 °W | Updated 3 hours ago

Partly Cloudy
Partly Cloudy
32 °F
Feels Like 25 °F
N
8
Wind Variable Wind from SE
Gusts 0.0 mph

Today
High -- | Low -- °F
--% Chance of Precip.
Yesterday
High -- | Low -- °F
Precip. -- in
8:16 AM 5:03 PM
New Moon, 0% visible
Pressure 30.07 in
Visibility 6.0 miles
Clouds Few 12000 ft
Windchill 25 °F
Dew Point 28 °F
Humidity 83%
Rainfall -999.00 in
Snow Depth Not available.
UV 0 out of 12
Pollen .10 out of 12
Air Quality Not available.
Flu Activity Not available.
METAR KTVC 220753Z 14005KT 6SM HZ FEW120 00/M03 A3005 RMK AO2 SLP182 T00001033

More Conditions Fewer Conditions

Pressure 30.07 in
Visibility 6.0 miles
Clouds Few 12000 ft
Windchill 25 °F
Dew Point 28 °F
Humidity 83%
Rainfall -999.00 in
Snow Depth Not available.
UV 0 out of 12
Pollen .10 out of 12
Air Quality Not available.
Flu Activity Not available.
METAR KTVC 220753Z 14005KT 6SM HZ FEW120 00/M03 A3005 RMK AO2 SLP182 T00001033

More Conditions Fewer Conditions

Nowcast | as of 3:00 am EST on December 22, 2014

At 4 am...mostly cloudy. Temperature 32. South winds 9 mph. At 6 am...mostly cloudy. Temperature 31. Southeast winds 8 mph. At 8 am...mostly cloudy. Temperature 31. Southeast winds 9 mph. At 10 am...partly cloudy. Temperature 32. Southeast winds 10 mph.

×

10-Day Weather Forecast

Almanac

Astronomy

Dec. 22, 2014 Rise Set
Actual Time
Civil Twilight
Nautical Twilight
Astronomical Twilight
Moon
Length of Visible Light
Length of Day
Tomorrow will be .
, % of the Moon is Illuminated

Today's Extremes

State Highs State Lows

Community

WunderPhotos

Upload Photos

1,779,580 photos uploaded!

WunderBlogs® & News

Nearby

Air Quality

  Air Quality AQ Index Pollutant
Not available.

Snow Depth

Station Depth Elevation

Earthquake Activity

City Distance Mag. Time & Date
Minimum magnitude displayed is 2.5.

Coastal Water Temperatures

Place Temperature

Nearby Weather Stations